Time;durP1;ratioP1;P1;durP2;ratioP2;P2;SDS_P1;SDS_P2;PMS_P1;PMS_P2;Temp;Humidity;BMP_temperature;BMP_pressure;BME280_temperature;BME280_humidity;BME280_pressure;Samples;Min_cycle;Max_cycle;Signal;HPM_P1;HPM_P2
2022/05/25 00:01:49;;;;;;;9.47;3.33;;;11.70;99.90;;;;;;4955978;28;20421;-86
2022/05/25 00:04:18;;;;;;;5.82;3.33;;;11.70;99.90;;;;;;4953483;28;20415;-86
2022/05/25 00:06:46;;;;;;;7.37;3.00;;;11.70;99.90;;;;;;4951719;28;20464;-86
2022/05/25 00:09:14;;;;;;;12.00;3.55;;;11.70;99.90;;;;;;4937881;28;20813;-86
2022/05/25 00:11:42;;;;;;;7.68;3.30;;;11.60;99.90;;;;;;4953192;28;20891;-86
2022/05/25 00:14:11;;;;;;;4.82;3.00;;;11.70;99.90;;;;;;4959003;28;20438;-86
2022/05/25 00:16:39;;;;;;;7.30;3.00;;;11.70;99.90;;;;;;4958606;28;20443;-87
2022/05/25 00:21:53;;;;;;;5.65;2.95;;;11.50;99.90;;;;;;4966005;28;20418;-87
2022/05/25 00:24:21;;;;;;;6.95;3.08;;;11.50;99.90;;;;;;4962851;28;20411;-88
2022/05/25 00:26:48;;;;;;;5.88;2.72;;;11.50;99.90;;;;;;4950138;28;20826;-87
2022/05/25 00:29:16;;;;;;;6.68;3.10;;;11.40;99.90;;;;;;4938318;28;20401;-88
2022/05/25 00:31:44;;;;;;;7.13;3.28;;;11.40;99.90;;;;;;4945988;28;20774;-88
2022/05/25 00:34:11;;;;;;;5.47;3.20;;;11.40;99.90;;;;;;4966569;28;20441;-88
2022/05/25 00:36:39;;;;;;;7.13;3.20;;;11.40;99.90;;;;;;4956712;28;20416;-85
2022/05/25 00:39:07;;;;;;;8.95;3.20;;;11.40;99.90;;;;;;4956825;28;20488;-88
2022/05/25 00:41:35;;;;;;;6.95;3.25;;;11.40;99.90;;;;;;4963451;28;20395;-87
2022/05/25 00:44:04;;;;;;;6.95;2.80;;;11.30;99.90;;;;;;4962462;28;20439;-87
2022/05/25 00:46:35;;;;;;;6.82;3.22;;;11.30;99.90;;;;;;4956929;28;20454;-88
2022/05/25 00:49:04;;;;;;;8.27;3.25;;;11.30;99.90;;;;;;4952171;28;20417;-87
2022/05/25 00:52:09;;;;;;;9.70;3.55;;;11.30;99.90;;;;;;4951504;28;20428;-82
2022/05/25 00:55:11;;;;;;;6.47;3.40;;;11.30;99.90;;;;;;4948663;28;20835;-88
2022/05/25 00:57:42;;;;;;;7.55;3.10;;;11.20;99.90;;;;;;4918384;28;20418;-86
2022/05/25 01:00:20;;;;;;;7.82;3.40;;;11.20;99.90;;;;;;4954918;28;20477;-85
2022/05/25 01:02:57;;;;;;;7.47;3.25;;;11.10;99.90;;;;;;4967381;28;20391;-86
2022/05/25 01:05:34;;;;;;;7.70;3.03;;;11.10;99.90;;;;;;4959408;28;20888;-87
2022/05/25 01:08:12;;;;;;;6.97;3.05;;;11.10;99.90;;;;;;4957396;28;20917;-87
2022/05/25 01:11:04;;;;;;;8.47;3.13;;;11.00;99.90;;;;;;4956779;28;20458;-85
2022/05/25 01:13:44;;;;;;;7.32;3.00;;;11.10;99.90;;;;;;4958408;28;21101;-87
2022/05/25 01:16:36;;;;;;;5.70;3.15;;;11.00;99.90;;;;;;4962125;28;20408;-86
2022/05/25 01:19:04;;;;;;;6.30;2.97;;;11.00;99.90;;;;;;4960583;28;20409;-86
2022/05/25 01:21:56;;;;;;;6.13;3.05;;;11.00;99.90;;;;;;4957244;28;20438;-85
2022/05/25 01:25:02;;;;;;;6.40;2.88;;;11.00;99.90;;;;;;4962805;28;20419;-85
2022/05/25 01:27:45;;;;;;;7.57;2.88;;;11.00;99.90;;;;;;4960986;28;20402;-88
2022/05/25 01:30:36;;;;;;;5.40;2.83;;;10.90;99.90;;;;;;4940313;28;20466;-87
2022/05/25 01:33:38;;;;;;;5.28;2.78;;;10.90;99.90;;;;;;4962636;28;20487;-87
2022/05/25 01:36:33;;;;;;;5.28;2.95;;;10.80;99.90;;;;;;4940135;28;20442;-87
2022/05/25 01:39:07;;;;;;;5.97;3.20;;;10.80;99.90;;;;;;4957679;28;20415;-87
2022/05/25 01:41:57;;;;;;;5.15;2.97;;;10.80;99.90;;;;;;4955476;28;20422;-88
2022/05/25 01:44:48;;;;;;;7.22;3.15;;;10.80;99.90;;;;;;4937152;29;20416;-84
2022/05/25 01:47:16;;;;;;;5.35;3.10;;;10.70;99.90;;;;;;4962452;28;20419;-86
2022/05/25 01:50:05;;;;;;;5.90;2.95;;;10.70;99.90;;;;;;4951825;28;20763;-85
2022/05/25 01:52:44;;;;;;;6.38;3.08;;;10.70;99.90;;;;;;4963679;28;20411;-86
2022/05/25 01:55:22;;;;;;;6.30;3.20;;;10.60;99.90;;;;;;4956512;28;20879;-88
2022/05/25 01:57:56;;;;;;;6.40;2.83;;;10.60;99.90;;;;;;4954645;28;20390;-88
2022/05/25 02:00:31;;;;;;;6.50;2.80;;;10.70;99.90;;;;;;4948297;28;20455;-86
2022/05/25 02:06:14;;;;;;;4.85;2.53;;;10.50;99.90;;;;;;4944792;28;20412;-84
2022/05/25 02:09:01;;;;;;;4.70;2.60;;;10.60;99.90;;;;;;4961420;28;20479;-86
2022/05/25 02:11:42;;;;;;;4.53;2.70;;;10.50;99.90;;;;;;4952063;28;20417;-87
2022/05/25 02:14:43;;;;;;;4.68;2.58;;;10.50;99.90;;;;;;4953492;28;20438;-84
2022/05/25 02:17:36;;;;;;;7.90;2.88;;;10.50;99.90;;;;;;4961070;28;20387;-87
2022/05/25 02:20:27;;;;;;;5.10;2.58;;;10.50;99.90;;;;;;4943862;29;20446;-86
2022/05/25 02:23:04;;;;;;;4.45;2.80;;;10.50;99.90;;;;;;4950113;28;20499;-86
2022/05/25 02:25:56;;;;;;;6.15;2.60;;;10.50;99.90;;;;;;4958619;28;20452;-87
2022/05/25 02:28:30;;;;;;;5.22;2.90;;;10.50;99.90;;;;;;4941173;28;20396;-86
2022/05/25 02:30:59;;;;;;;6.13;2.63;;;10.50;99.90;;;;;;4958406;28;20409;-88
2022/05/25 02:33:55;;;;;;;5.53;3.28;;;10.50;99.90;;;;;;4958580;28;20410;-87
2022/05/25 02:36:24;;;;;;;4.63;2.65;;;10.40;99.90;;;;;;4950282;28;20424;-86
2022/05/25 02:38:52;;;;;;;8.43;3.00;;;10.50;99.90;;;;;;4956994;28;20407;-86
2022/05/25 02:41:32;;;;;;;5.57;3.08;;;10.50;99.90;;;;;;4936304;28;20827;-86
2022/05/25 02:44:02;;;;;;;7.73;2.80;;;10.40;99.90;;;;;;4965769;28;20405;-87
2022/05/25 02:46:30;;;;;;;5.25;2.97;;;10.40;99.90;;;;;;4961099;28;20437;-88
2022/05/25 02:48:58;;;;;;;6.65;3.08;;;10.40;99.90;;;;;;4942479;28;20408;-85
2022/05/25 02:51:26;;;;;;;7.18;3.38;;;10.40;99.90;;;;;;4951455;28;20419;-88
2022/05/25 02:53:54;;;;;;;8.95;3.00;;;10.40;99.90;;;;;;4945390;28;20408;-86
2022/05/25 02:56:21;;;;;;;5.43;2.63;;;10.40;99.90;;;;;;4932322;29;20908;-87
2022/05/25 02:58:49;;;;;;;7.47;2.83;;;10.40;99.90;;;;;;4946330;28;20421;-87
2022/05/25 03:01:17;;;;;;;5.95;2.97;;;10.30;99.90;;;;;;4949549;28;20424;-87
2022/05/25 03:03:45;;;;;;;6.32;2.60;;;10.40;99.90;;;;;;4933439;29;20397;-88
2022/05/25 03:06:13;;;;;;;7.15;2.78;;;10.30;99.90;;;;;;4937895;28;20422;-85
2022/05/25 03:08:42;;;;;;;5.35;3.00;;;10.30;99.90;;;;;;4947781;29;20413;-86
2022/05/25 03:11:10;;;;;;;3.80;2.80;;;10.40;99.90;;;;;;4938904;29;20438;-84
2022/05/25 03:13:41;;;;;;;6.25;3.20;;;10.40;99.90;;;;;;4941858;29;20757;-87
2022/05/25 03:16:12;;;;;;;5.65;2.78;;;10.40;99.90;;;;;;4942275;29;20884;-87
2022/05/25 03:18:43;;;;;;;5.67;2.77;;;10.50;99.90;;;;;;4942944;29;20414;-85
2022/05/25 03:21:10;;;;;;;5.57;2.95;;;10.50;99.90;;;;;;4937310;29;20440;-86
2022/05/25 03:23:38;;;;;;;8.35;3.00;;;10.50;99.90;;;;;;4943327;28;20414;-86
2022/05/25 03:26:06;;;;;;;4.78;2.97;;;10.50;99.90;;;;;;4941153;29;20451;-86
2022/05/25 03:28:34;;;;;;;6.30;2.65;;;10.40;99.90;;;;;;4934280;29;20967;-88
2022/05/25 03:31:02;;;;;;;4.83;2.80;;;10.50;99.90;;;;;;4938974;29;20917;-87
2022/05/25 03:33:31;;;;;;;5.30;2.78;;;10.50;99.90;;;;;;4960529;28;20809;-86
2022/05/25 03:35:59;;;;;;;5.25;2.80;;;10.50;99.90;;;;;;4942373;28;20414;-87
2022/05/25 03:38:27;;;;;;;5.68;2.78;;;10.50;99.90;;;;;;4945239;28;20416;-86
2022/05/25 03:40:55;;;;;;;6.80;3.17;;;10.50;99.90;;;;;;4936478;29;20925;-87
2022/05/25 03:43:28;;;;;;;6.00;2.73;;;10.50;99.90;;;;;;4942078;29;20428;-87
2022/05/25 03:45:55;;;;;;;5.40;2.90;;;10.60;99.90;;;;;;4952913;28;20414;-87
2022/05/25 03:48:23;;;;;;;5.07;2.97;;;10.60;99.90;;;;;;4941787;28;20493;-87
2022/05/25 03:50:51;;;;;;;4.65;2.88;;;10.70;99.90;;;;;;4920134;29;20495;-88
2022/05/25 03:53:18;;;;;;;5.55;2.83;;;10.70;99.90;;;;;;4944617;29;20789;-87
2022/05/25 03:55:47;;;;;;;6.10;2.90;;;10.70;99.90;;;;;;4957676;28;20414;-86
2022/05/25 03:58:14;;;;;;;6.30;3.00;;;10.80;99.90;;;;;;4950892;28;20418;-87
2022/05/25 04:00:42;;;;;;;5.53;3.03;;;10.80;99.90;;;;;;4937421;29;20418;-84
2022/05/25 04:03:14;;;;;;;5.93;3.40;;;10.80;99.90;;;;;;4941526;29;20409;-87
2022/05/25 04:05:43;;;;;;;6.00;3.13;;;10.90;99.90;;;;;;4939615;29;20409;-85
2022/05/25 04:08:11;;;;;;;5.25;3.25;;;10.90;99.90;;;;;;4938140;28;20908;-88
2022/05/25 04:10:39;;;;;;;6.97;3.27;;;10.90;99.90;;;;;;4936633;29;20398;-86
2022/05/25 04:13:06;;;;;;;8.07;3.30;;;10.90;99.90;;;;;;4940591;29;20402;-88
2022/05/25 04:15:35;;;;;;;7.97;3.20;;;11.00;99.90;;;;;;4947472;28;20412;-87
2022/05/25 04:18:03;;;;;;;5.47;3.10;;;11.00;99.90;;;;;;4944201;29;20462;-85
2022/05/25 04:20:32;;;;;;;5.10;3.33;;;11.00;99.90;;;;;;4949737;29;20427;-84
2022/05/25 04:23:00;;;;;;;8.20;3.83;;;11.10;99.90;;;;;;4955511;28;20404;-87
2022/05/25 04:25:28;;;;;;;5.57;3.50;;;11.10;99.90;;;;;;4934052;28;20421;-86
2022/05/25 04:27:57;;;;;;;9.63;3.33;;;11.10;99.90;;;;;;4938633;28;20442;-84
2022/05/25 04:30:27;;;;;;;6.32;3.28;;;11.10;99.90;;;;;;4946167;29;20599;-86
2022/05/25 04:32:56;;;;;;;6.78;3.40;;;11.20;99.90;;;;;;4940805;29;20490;-85
2022/05/25 04:35:27;;;;;;;7.00;3.40;;;11.30;99.90;;;;;;4946958;28;20414;-85
2022/05/25 04:37:56;;;;;;;8.20;3.40;;;11.30;99.90;;;;;;4930449;29;20410;-85
2022/05/25 04:40:37;;;;;;;6.57;3.50;;;11.30;99.90;;;;;;4947843;29;20447;-85
2022/05/25 04:43:17;;;;;;;5.35;3.20;;;11.40;99.90;;;;;;4954780;28;20394;-85
2022/05/25 04:45:47;;;;;;;6.28;3.33;;;11.50;99.90;;;;;;4942346;28;20422;-84
2022/05/25 04:48:16;;;;;;;5.13;2.90;;;11.50;99.90;;;;;;4939535;29;20883;-85
2022/05/25 04:50:45;;;;;;;8.13;3.10;;;11.50;99.90;;;;;;4945725;28;20808;-85
2022/05/25 04:53:16;;;;;;;6.90;3.50;;;11.60;99.90;;;;;;4944064;28;20426;-85
2022/05/25 04:58:39;;;;;;;7.18;3.33;;;11.70;99.90;;;;;;4945120;28;20952;-86
2022/05/25 05:01:08;;;;;;;8.80;3.55;;;11.70;99.90;;;;;;4943374;29;20418;-86
2022/05/25 05:03:37;;;;;;;9.30;3.55;;;11.70;99.90;;;;;;4950084;29;20408;-84
2022/05/25 05:06:06;;;;;;;5.77;3.30;;;11.80;99.90;;;;;;4943896;29;20414;-85
2022/05/25 05:08:34;;;;;;;5.45;3.00;;;11.90;99.90;;;;;;4932566;28;20456;-85
2022/05/25 05:11:12;;;;;;;8.15;3.22;;;11.90;99.90;;;;;;4937821;29;20512;-85
2022/05/25 05:13:41;;;;;;;7.22;3.05;;;11.90;99.90;;;;;;4941927;28;20410;-85
2022/05/25 05:16:15;;;;;;;7.03;3.10;;;12.10;99.90;;;;;;4937999;29;20481;-85
2022/05/25 05:18:44;;;;;;;6.75;3.17;;;12.10;99.90;;;;;;4936981;29;20813;-82
2022/05/25 05:21:30;;;;;;;5.65;2.95;;;12.30;99.90;;;;;;4956305;28;20396;-85
2022/05/25 05:23:58;;;;;;;5.43;3.17;;;12.30;99.90;;;;;;4932975;29;20416;-83
2022/05/25 05:26:26;;;;;;;7.75;3.17;;;12.30;99.90;;;;;;4946774;29;20410;-84
2022/05/25 05:28:53;;;;;;;8.37;3.27;;;12.30;99.90;;;;;;4935890;29;20421;-82
2022/05/25 05:31:21;;;;;;;5.65;2.95;;;12.40;99.90;;;;;;4924208;29;20414;-86
2022/05/25 05:33:49;;;;;;;7.80;3.67;;;12.40;99.90;;;;;;4939252;28;20468;-86
2022/05/25 05:36:27;;;;;;;9.02;3.55;;;12.40;99.90;;;;;;4947449;28;20511;-84
2022/05/25 05:39:03;;;;;;;8.47;3.40;;;12.50;99.90;;;;;;4951386;28;20496;-84
2022/05/25 05:41:53;;;;;;;7.55;3.40;;;12.50;99.90;;;;;;4949537;29;20471;-85
2022/05/25 05:44:25;;;;;;;8.27;3.40;;;12.60;99.90;;;;;;4950435;28;20492;-84
2022/05/25 05:46:59;;;;;;;6.47;3.50;;;12.70;99.90;;;;;;4941667;28;20455;-86
2022/05/25 05:49:27;;;;;;;6.78;3.33;;;12.70;99.90;;;;;;4953970;28;20422;-85
2022/05/25 05:51:54;;;;;;;13.10;3.90;;;12.90;99.90;;;;;;4946452;28;20408;-84
2022/05/25 05:54:23;;;;;;;9.93;3.42;;;12.90;99.90;;;;;;4941636;28;20555;-84
2022/05/25 05:56:51;;;;;;;11.05;3.63;;;13.00;99.90;;;;;;4942006;29;20856;-85
2022/05/25 05:59:19;;;;;;;6.97;3.60;;;13.00;99.90;;;;;;4935482;29;20402;-84
2022/05/25 06:01:46;;;;;;;6.97;3.30;;;13.00;99.90;;;;;;4939437;29;20752;-85
2022/05/25 06:04:16;;;;;;;9.45;3.78;;;13.10;99.90;;;;;;4940949;29;20467;-85
2022/05/25 06:06:44;;;;;;;10.90;3.78;;;13.20;99.90;;;;;;4950010;28;20419;-84
2022/05/25 06:09:11;;;;;;;9.60;3.67;;;13.30;99.90;;;;;;4951823;28;20903;-86
2022/05/25 06:11:41;;;;;;;8.95;3.35;;;13.40;99.90;;;;;;4956112;28;20414;-85
2022/05/25 06:14:10;;;;;;;7.60;3.38;;;13.40;99.90;;;;;;4946168;28;20410;-85
2022/05/25 06:19:40;;;;;;;8.07;2.95;;;13.40;99.90;;;;;;5004983;28;20407;-84
2022/05/25 06:22:14;;;;;;;8.32;3.58;;;13.80;99.90;;;;;;4963165;28;20483;-84
2022/05/25 06:24:48;;;;;;;5.97;3.40;;;13.90;99.90;;;;;;4956792;28;20414;-84
2022/05/25 06:27:18;;;;;;;7.03;3.15;;;13.90;99.90;;;;;;4937438;29;20617;-85
2022/05/25 06:29:48;;;;;;;7.70;3.22;;;13.80;99.90;;;;;;4933619;29;20386;-84
2022/05/25 06:32:19;;;;;;;8.98;3.60;;;13.90;99.90;;;;;;4949501;28;20402;-84
2022/05/25 06:34:48;;;;;;;5.32;3.08;;;14.00;99.90;;;;;;4952262;28;20426;-85
2022/05/25 06:37:18;;;;;;;4.60;2.73;;;14.10;99.90;;;;;;4932486;29;20417;-84
2022/05/25 06:39:46;;;;;;;7.43;3.70;;;14.20;99.90;;;;;;4936867;29;20418;-85
2022/05/25 06:42:14;;;;;;;6.88;2.95;;;14.30;99.90;;;;;;4935685;29;20406;-85
2022/05/25 06:44:53;;;;;;;6.27;3.40;;;14.40;99.90;;;;;;4940697;28;20446;-86
2022/05/25 06:47:21;;;;;;;6.43;2.85;;;14.40;99.90;;;;;;4942846;28;20816;-86
2022/05/25 06:49:52;;;;;;;6.68;2.70;;;14.60;99.90;;;;;;4941062;29;20406;-83
2022/05/25 06:52:23;;;;;;;7.00;3.17;;;14.60;99.90;;;;;;4949806;28;20470;-85
2022/05/25 06:54:54;;;;;;;6.25;2.70;;;14.80;99.90;;;;;;4948504;28;20392;-86
2022/05/25 06:57:25;;;;;;;5.68;2.92;;;14.90;99.90;;;;;;4944459;28;20414;-86
2022/05/25 06:59:53;;;;;;;6.82;3.08;;;14.90;99.90;;;;;;4947972;28;20443;-86
2022/05/25 07:02:22;;;;;;;6.40;3.07;;;14.90;99.90;;;;;;4954531;28;20440;-85
2022/05/25 07:04:51;;;;;;;6.57;2.70;;;15.00;99.90;;;;;;4947298;29;20414;-84
2022/05/25 07:07:19;;;;;;;7.18;3.17;;;15.10;99.90;;;;;;4948441;29;20425;-84
2022/05/25 07:09:47;;;;;;;9.20;3.20;;;15.20;99.90;;;;;;4945027;29;20389;-85
2022/05/25 07:12:15;;;;;;;6.65;3.00;;;15.40;99.90;;;;;;4934467;29;20462;-84
2022/05/25 07:14:43;;;;;;;6.95;3.53;;;15.30;99.90;;;;;;4948701;28;20406;-85
2022/05/25 07:17:12;;;;;;;7.15;2.75;;;15.40;99.90;;;;;;4946220;28;20659;-85
2022/05/25 07:19:39;;;;;;;10.52;2.95;;;15.50;99.90;;;;;;4949855;28;20404;-85
2022/05/25 07:22:09;;;;;;;5.13;2.55;;;15.50;99.90;;;;;;4934309;29;20409;-86
2022/05/25 07:24:42;;;;;;;3.65;2.30;;;15.60;99.90;;;;;;4930596;29;20501;-83
2022/05/25 07:27:10;;;;;;;4.65;2.28;;;15.70;99.90;;;;;;4950151;28;20405;-85
2022/05/25 07:29:37;;;;;;;6.72;2.85;;;15.70;99.90;;;;;;4934102;29;20495;-85
2022/05/25 07:32:09;;;;;;;5.38;2.63;;;15.70;99.90;;;;;;4939566;28;20415;-86
2022/05/25 07:34:46;;;;;;;5.40;2.38;;;15.80;99.90;;;;;;4959832;28;20414;-84
2022/05/25 07:37:18;;;;;;;5.00;2.60;;;15.80;99.90;;;;;;4937926;29;20944;-84
2022/05/25 07:39:56;;;;;;;5.60;2.15;;;16.00;99.90;;;;;;4931385;29;20394;-85
2022/05/25 07:42:26;;;;;;;5.13;2.63;;;16.00;99.90;;;;;;4935597;29;20410;-85
2022/05/25 07:44:59;;;;;;;5.28;2.30;;;16.30;99.90;;;;;;4934954;29;20438;-83
2022/05/25 07:47:29;;;;;;;6.05;2.28;;;16.40;99.90;;;;;;4938979;29;20483;-85
2022/05/25 07:49:56;;;;;;;8.85;2.55;;;16.30;99.90;;;;;;4939899;28;20436;-85
2022/05/25 07:52:28;;;;;;;5.60;2.40;;;16.50;99.90;;;;;;4947418;28;20469;-84
2022/05/25 07:54:58;;;;;;;5.40;2.08;;;16.50;99.90;;;;;;4959977;28;20460;-86
2022/05/25 07:57:25;;;;;;;6.50;2.20;;;16.50;99.90;;;;;;4957930;28;20440;-85
2022/05/25 07:59:53;;;;;;;4.18;2.30;;;16.60;99.90;;;;;;4951572;28;20412;-84
2022/05/25 08:08:04;;;;;;;4.97;2.10;;;16.80;99.90;;;;;;4956137;28;20424;-83
2022/05/25 08:10:34;;;;;;;4.03;2.08;;;16.80;99.90;;;;;;4959706;28;20403;-84
2022/05/25 08:13:02;;;;;;;3.65;2.30;;;17.00;99.90;;;;;;4950956;28;20385;-84
2022/05/25 08:15:31;;;;;;;4.90;2.33;;;17.30;99.90;;;;;;4962009;28;20402;-85
2022/05/25 08:18:00;;;;;;;4.60;2.20;;;17.20;99.90;;;;;;4958880;28;20404;-83
2022/05/25 08:20:30;;;;;;;2.40;1.70;;;17.40;99.90;;;;;;4953362;28;20412;-84
2022/05/25 08:22:58;;;;;;;4.10;1.80;;;17.30;99.90;;;;;;4957216;28;20405;-84
2022/05/25 08:25:26;;;;;;;4.03;2.20;;;17.30;99.90;;;;;;4950448;28;20397;-83
2022/05/25 08:27:54;;;;;;;7.10;2.00;;;17.50;99.90;;;;;;4932652;29;20776;-83
2022/05/25 08:30:21;;;;;;;5.35;2.03;;;17.70;99.90;;;;;;4953244;28;20400;-84
2022/05/25 08:32:49;;;;;;;4.77;1.93;;;17.60;99.90;;;;;;4962613;28;20411;-83
2022/05/25 08:35:18;;;;;;;5.32;2.05;;;17.50;99.90;;;;;;4957511;28;20404;-85
2022/05/25 08:37:46;;;;;;;3.78;2.05;;;17.60;99.90;;;;;;4949665;28;20762;-83
2022/05/25 08:40:20;;;;;;;3.87;2.00;;;17.60;99.90;;;;;;4957200;28;20483;-84
2022/05/25 08:43:04;;;;;;;6.57;2.20;;;17.60;99.90;;;;;;4961565;28;20928;-83
2022/05/25 08:45:43;;;;;;;6.00;2.37;;;17.70;99.90;;;;;;4954884;28;20411;-82
2022/05/25 08:48:15;;;;;;;3.45;1.80;;;17.80;99.90;;;;;;4959469;28;20458;-85
2022/05/25 08:50:46;;;;;;;4.95;2.00;;;17.90;99.90;;;;;;4946548;29;20413;-84
2022/05/25 08:53:15;;;;;;;4.13;1.90;;;17.90;99.90;;;;;;4955069;28;20425;-84
2022/05/25 08:55:58;;;;;;;3.10;1.80;;;17.90;99.90;;;;;;4960449;28;20416;-84
2022/05/25 08:58:38;;;;;;;3.47;1.70;;;18.10;99.90;;;;;;4951045;28;20421;-84
2022/05/25 09:01:08;;;;;;;4.72;2.10;;;18.20;99.90;;;;;;4941582;28;20409;-84
2022/05/25 09:03:39;;;;;;;2.58;1.90;;;18.10;99.90;;;;;;4949828;28;20419;-84
2022/05/25 09:06:29;;;;;;;5.30;1.85;;;18.10;99.90;;;;;;4933400;29;20416;-85
2022/05/25 09:09:05;;;;;;;5.07;1.90;;;18.10;99.90;;;;;;4932232;28;20402;-84
2022/05/25 09:11:49;;;;;;;4.40;1.80;;;18.40;99.90;;;;;;4949787;28;20889;-83
2022/05/25 09:14:28;;;;;;;3.22;1.88;;;18.50;99.90;;;;;;4945844;29;20511;-83
2022/05/25 09:17:00;;;;;;;3.23;1.87;;;18.40;99.90;;;;;;4959572;28;20450;-82
2022/05/25 09:19:35;;;;;;;3.88;1.83;;;18.20;99.90;;;;;;4960847;28;20438;-83
2022/05/25 09:22:09;;;;;;;4.10;2.00;;;18.20;99.90;;;;;;4959760;28;20426;-82
2022/05/25 09:24:37;;;;;;;4.63;2.42;;;18.50;99.90;;;;;;4930999;29;20459;-84
2022/05/25 09:27:09;;;;;;;5.90;2.00;;;18.80;99.90;;;;;;4932962;28;20781;-84
2022/05/25 09:29:37;;;;;;;4.88;2.42;;;18.80;99.90;;;;;;4949580;28;20404;-84
2022/05/25 09:32:42;;;;;;;5.87;2.00;;;18.90;99.90;;;;;;4948746;28;20396;-84
2022/05/25 09:35:20;;;;;;;3.30;2.00;;;19.00;99.90;;;;;;4941153;28;20750;-84
2022/05/25 09:37:51;;;;;;;4.93;2.10;;;18.90;99.90;;;;;;4936197;28;20522;-84
2022/05/25 09:40:31;;;;;;;2.70;1.92;;;19.00;99.90;;;;;;4959111;28;20403;-84
2022/05/25 09:43:01;;;;;;;4.22;2.15;;;18.90;99.90;;;;;;4936442;29;20432;-83
2022/05/25 09:45:36;;;;;;;6.40;2.30;;;19.00;99.90;;;;;;4939689;29;20423;-84
2022/05/25 09:48:22;;;;;;;4.07;1.88;;;19.20;99.90;;;;;;4929006;29;20901;-84
2022/05/25 09:50:54;;;;;;;5.00;2.15;;;19.30;99.90;;;;;;4941679;29;20431;-84
2022/05/25 09:53:24;;;;;;;5.43;2.22;;;19.70;99.90;;;;;;4953640;28;20502;-83
2022/05/25 09:55:59;;;;;;;5.18;2.25;;;19.50;99.90;;;;;;4962649;28;20491;-85
2022/05/25 09:58:32;;;;;;;4.75;2.10;;;19.60;99.90;;;;;;4970682;28;20791;-86
2022/05/25 10:01:17;;;;;;;4.60;2.80;;;19.60;99.90;;;;;;4965775;28;20413;-84
2022/05/25 10:03:45;;;;;;;3.65;2.20;;;19.60;99.90;;;;;;4957370;28;20406;-86
2022/05/25 10:06:32;;;;;;;3.85;2.42;;;19.70;99.90;;;;;;4966089;28;20873;-84
2022/05/25 10:09:11;;;;;;;4.75;2.20;;;19.70;99.90;;;;;;4953428;28;20399;-85
2022/05/25 10:11:45;;;;;;;3.88;2.15;;;19.80;99.90;;;;;;4944321;28;20404;-86
2022/05/25 10:14:19;;;;;;;5.28;2.47;;;19.80;99.90;;;;;;4980359;28;20405;-86
2022/05/25 10:16:49;;;;;;;3.72;1.90;;;19.80;99.90;;;;;;4952652;28;20410;-86
2022/05/25 10:19:19;;;;;;;4.05;2.10;;;19.70;99.90;;;;;;4963451;28;20412;-85
2022/05/25 10:21:59;;;;;;;5.13;2.22;;;19.50;99.90;;;;;;4961252;28;20416;-85
2022/05/25 10:24:41;;;;;;;5.05;2.17;;;19.40;99.90;;;;;;4954859;28;20529;-85
2022/05/25 10:27:24;;;;;;;4.38;2.17;;;19.60;99.90;;;;;;5035412;28;20464;-83
2022/05/25 10:38:40;;;;;;;5.03;2.50;;;19.80;99.90;;;;;;4968383;28;20440;-85
2022/05/25 10:44:20;;;;;;;6.18;2.15;;;19.90;99.90;;;;;;4961658;28;20420;-86
2022/05/25 10:46:57;;;;;;;5.53;2.00;;;19.80;99.90;;;;;;4961248;28;20415;-85
2022/05/25 10:49:42;;;;;;;6.75;2.10;;;19.70;99.90;;;;;;4963391;28;20388;-85
2022/05/25 10:52:32;;;;;;;6.97;2.30;;;19.70;99.90;;;;;;4962215;28;20413;-85
2022/05/25 10:55:00;;;;;;;4.45;2.00;;;19.70;99.90;;;;;;4963093;28;20415;-86
2022/05/25 10:57:36;;;;;;;4.47;2.20;;;19.60;99.90;;;;;;4952107;29;20396;-84
2022/05/25 11:00:27;;;;;;;5.03;2.42;;;19.60;99.90;;;;;;4954768;28;20505;-84
2022/05/25 11:03:27;;;;;;;4.60;2.38;;;19.60;99.90;;;;;;4944542;28;20411;-85
2022/05/25 11:06:25;;;;;;;8.52;2.63;;;19.60;99.30;;;;;;4940867;28;20412;-85
2022/05/25 11:09:20;;;;;;;7.28;2.90;;;19.60;99.90;;;;;;4942016;28;20474;-81
2022/05/25 11:12:17;;;;;;;6.68;2.45;;;19.50;99.80;;;;;;4955363;28;20459;-86
2022/05/25 11:15:13;;;;;;;7.43;2.47;;;19.50;99.90;;;;;;4924941;29;20436;-84
2022/05/25 11:18:05;;;;;;;4.60;2.72;;;19.60;99.90;;;;;;4945430;28;20407;-83
2022/05/25 11:20:57;;;;;;;5.23;2.33;;;19.60;99.90;;;;;;4949947;28;20395;-86
2022/05/25 11:23:52;;;;;;;3.70;2.40;;;19.60;99.90;;;;;;4958277;28;20442;-85
2022/05/25 11:26:46;;;;;;;4.83;2.40;;;19.60;99.90;;;;;;4964160;28;20440;-85
2022/05/25 11:29:59;;;;;;;6.25;2.50;;;19.70;99.50;;;;;;4954079;28;20399;-84
2022/05/25 11:32:37;;;;;;;3.92;2.60;;;19.70;98.90;;;;;;4972103;28;20491;-85
2022/05/25 11:35:17;;;;;;;6.30;2.50;;;19.70;99.80;;;;;;4964752;28;20905;-84
2022/05/25 11:38:17;;;;;;;5.38;2.58;;;19.60;99.90;;;;;;4945700;28;20485;-83
2022/05/25 11:40:56;;;;;;;7.50;3.07;;;19.60;99.90;;;;;;4943654;28;20420;-86
2022/05/25 11:44:01;;;;;;;7.47;2.65;;;19.60;99.90;;;;;;4956251;28;20399;-84
2022/05/25 11:46:48;;;;;;;6.05;2.78;;;19.50;99.90;;;;;;4945058;29;20484;-85
2022/05/25 11:49:56;;;;;;;6.15;2.75;;;19.60;99.90;;;;;;4932603;28;20776;-83
2022/05/25 11:53:08;;;;;;;6.72;2.90;;;19.60;99.90;;;;;;4939722;28;20982;-85
2022/05/25 11:56:08;;;;;;;6.72;2.58;;;19.70;99.90;;;;;;4916709;28;20411;-86
2022/05/25 11:59:10;;;;;;;6.85;2.70;;;19.80;99.50;;;;;;4937752;28;20418;-86
2022/05/25 12:01:57;;;;;;;4.23;2.80;;;19.80;99.40;;;;;;4922624;28;20886;-84
2022/05/25 12:04:57;;;;;;;4.95;2.30;;;19.90;97.90;;;;;;4953514;28;20408;-84
2022/05/25 12:07:52;;;;;;;5.15;2.58;;;19.80;99.90;;;;;;4956813;28;20415;-85
2022/05/25 12:10:26;;;;;;;5.27;2.67;;;19.80;99.90;;;;;;4952796;28;20420;-84
2022/05/25 12:13:10;;;;;;;4.45;2.38;;;19.80;99.90;;;;;;4953840;28;20448;-83
2022/05/25 12:15:49;;;;;;;4.63;2.40;;;19.80;98.40;;;;;;4938853;28;20491;-84
2022/05/25 12:18:42;;;;;;;5.55;3.22;;;19.80;98.00;;;;;;4956915;28;20395;-84
2022/05/25 12:21:40;;;;;;;4.85;2.63;;;19.70;98.40;;;;;;4951076;28;20400;-84
2022/05/25 12:24:24;;;;;;;3.72;2.50;;;19.60;98.50;;;;;;4937428;28;20408;-85
2022/05/25 12:26:54;;;;;;;4.05;2.45;;;19.60;99.20;;;;;;4961674;28;20474;-85
2022/05/25 12:29:33;;;;;;;5.32;2.28;;;19.50;99.10;;;;;;4956652;28;20810;-83
2022/05/25 12:32:51;;;;;;;7.70;2.55;;;19.50;97.20;;;;;;4938848;28;20870;-83
2022/05/25 12:35:19;;;;;;;7.90;2.97;;;19.50;97.50;;;;;;4943350;28;20402;-83
2022/05/25 12:37:53;;;;;;;8.10;2.72;;;19.40;98.20;;;;;;4951481;28;20902;-85
2022/05/25 12:40:26;;;;;;;8.20;2.58;;;19.50;99.40;;;;;;4946830;28;20456;-85
2022/05/25 12:42:54;;;;;;;9.30;2.80;;;19.40;97.90;;;;;;4935252;28;20766;-84
2022/05/25 12:48:31;;;;;;;6.57;3.13;;;19.40;97.80;;;;;;4939074;28;20416;-84
2022/05/25 12:51:05;;;;;;;7.00;2.70;;;19.40;99.00;;;;;;4938549;29;20416;-83
2022/05/25 12:53:37;;;;;;;8.40;3.40;;;19.40;98.70;;;;;;4959550;28;20439;-85
2022/05/25 12:56:19;;;;;;;7.65;3.20;;;19.40;98.50;;;;;;4957798;28;20722;-85
2022/05/25 12:58:53;;;;;;;5.72;2.88;;;19.40;98.30;;;;;;4950637;28;20396;-84
2022/05/25 13:01:27;;;;;;;8.00;2.90;;;19.30;98.70;;;;;;4957396;28;20412;-85
2022/05/25 13:03:55;;;;;;;3.72;2.53;;;19.30;98.60;;;;;;4962430;28;20415;-85
2022/05/25 13:06:35;;;;;;;6.38;2.90;;;19.40;98.70;;;;;;4960402;28;20399;-85
2022/05/25 13:09:07;;;;;;;7.22;3.13;;;19.40;98.90;;;;;;4940822;28;20498;-84
2022/05/25 13:11:55;;;;;;;6.25;2.78;;;19.30;99.10;;;;;;4961298;28;20784;-84
2022/05/25 13:14:34;;;;;;;9.05;3.13;;;19.40;98.80;;;;;;4961737;28;20898;-85
2022/05/25 13:17:03;;;;;;;8.20;3.13;;;19.30;99.80;;;;;;4963763;28;20423;-85
2022/05/25 13:19:45;;;;;;;7.55;2.78;;;19.40;99.90;;;;;;4963268;28;20445;-83
2022/05/25 13:22:17;;;;;;;7.20;3.13;;;19.30;99.00;;;;;;4953106;28;20887;-84
2022/05/25 13:25:03;;;;;;;7.78;3.38;;;19.30;99.90;;;;;;4962568;28;20885;-85
2022/05/25 13:28:09;;;;;;;10.60;3.88;;;19.30;99.20;;;;;;4920682;29;21024;-85
2022/05/25 13:30:40;;;;;;;10.10;3.47;;;19.30;99.60;;;;;;4960023;28;20411;-84
2022/05/25 13:33:20;;;;;;;7.32;3.05;;;19.30;99.90;;;;;;4962428;28;20464;-85
2022/05/25 13:35:56;;;;;;;7.68;3.10;;;19.30;99.20;;;;;;4943831;29;20408;-85
2022/05/25 13:38:31;;;;;;;6.90;3.30;;;19.20;99.90;;;;;;4967443;28;20901;-84
2022/05/25 13:41:11;;;;;;;7.03;3.45;;;19.20;99.70;;;;;;4947217;28;20507;-85
2022/05/25 13:43:41;;;;;;;6.97;3.13;;;19.20;99.60;;;;;;4947641;28;20391;-85
2022/05/25 13:46:13;;;;;;;6.70;3.33;;;19.20;99.20;;;;;;4938079;28;20442;-84
2022/05/25 13:49:28;;;;;;;7.45;3.47;;;19.10;99.80;;;;;;4948589;28;20420;-84
2022/05/25 13:52:14;;;;;;;9.05;3.25;;;19.10;99.90;;;;;;4939465;28;20467;-84
2022/05/25 13:54:45;;;;;;;12.20;3.70;;;19.10;99.90;;;;;;4930287;29;20396;-83
2022/05/25 13:57:24;;;;;;;7.38;3.20;;;19.10;99.90;;;;;;4963030;28;20849;-85
2022/05/25 13:59:52;;;;;;;6.03;2.80;;;19.10;99.90;;;;;;4955855;28;20408;-84
2022/05/25 14:02:25;;;;;;;5.88;3.08;;;19.10;99.90;;;;;;4966290;28;20414;-85